Time;durP1;ratioP1;P1;durP2;ratioP2;P2;SDS_P1;SDS_P2;PMS_P1;PMS_P2;Temp;Humidity;BMP_temperature;BMP_pressure;BME280_temperature;BME280_humidity;BME280_pressure;Samples;Min_cycle;Max_cycle;Signal;HPM_P1;HPM_P2
2021/05/11 00:00:00;;;;;;;3.97;1.75;;;19.60;99.90;;;;;;4399587;32;20082;-63
2021/05/11 00:02:26;;;;;;;0.22;0.22;;;19.60;99.90;;;;;;4398978;32;20078;-63
2021/05/11 00:04:51;;;;;;;0.20;0.20;;;19.50;99.90;;;;;;4399181;32;20135;-63
2021/05/11 00:07:17;;;;;;;0.30;0.30;;;19.50;99.90;;;;;;4397944;32;20070;-65
2021/05/11 00:09:42;;;;;;;0.30;0.30;;;19.50;99.90;;;;;;4398769;32;20062;-63
2021/05/11 00:12:08;;;;;;;0.55;0.55;;;19.40;99.90;;;;;;4406966;32;20078;-64
2021/05/11 00:14:34;;;;;;;0.30;0.30;;;19.40;99.90;;;;;;4414522;32;20070;-62
2021/05/11 00:16:59;;;;;;;0.25;0.25;;;19.40;99.90;;;;;;4415551;32;20078;-64
2021/05/11 00:19:26;;;;;;;0.30;0.30;;;19.30;99.90;;;;;;4413172;32;20113;-63
2021/05/11 00:21:52;;;;;;;0.30;0.30;;;19.40;99.90;;;;;;4414625;32;20078;-63
2021/05/11 00:24:18;;;;;;;0.35;0.35;;;19.40;99.90;;;;;;4412868;32;20404;-64
2021/05/11 00:26:43;;;;;;;0.25;0.25;;;19.30;99.90;;;;;;4414969;32;20077;-64
2021/05/11 00:29:09;;;;;;;0.28;0.28;;;19.20;99.90;;;;;;4412378;32;20104;-63
2021/05/11 00:31:35;;;;;;;0.40;0.40;;;19.20;99.90;;;;;;4415073;32;20058;-63
2021/05/11 00:34:00;;;;;;;0.30;0.30;;;19.20;99.90;;;;;;4413402;32;20078;-63
2021/05/11 00:36:26;;;;;;;0.50;0.50;;;19.10;99.90;;;;;;4414572;32;20074;-63
2021/05/11 00:38:51;;;;;;;0.20;0.20;;;19.10;99.90;;;;;;4414436;32;20061;-64
2021/05/11 00:41:17;;;;;;;0.30;0.30;;;19.10;99.90;;;;;;4412550;32;20066;-62
2021/05/11 00:43:44;;;;;;;0.32;0.30;;;19.00;99.90;;;;;;4413764;32;20112;-64
2021/05/11 00:46:10;;;;;;;11.50;1.10;;;19.00;99.90;;;;;;4414382;32;20108;-64
2021/05/11 00:48:36;;;;;;;0.20;0.20;;;18.90;99.90;;;;;;4412835;32;20062;-63
2021/05/11 00:51:04;;;;;;;0.20;0.20;;;18.90;99.90;;;;;;4412977;32;20062;-63
2021/05/11 00:53:29;;;;;;;0.45;0.45;;;19.00;99.90;;;;;;4409125;32;20560;-63
2021/05/11 00:55:55;;;;;;;0.20;0.20;;;18.90;99.90;;;;;;4398914;32;20062;-63
2021/05/11 00:58:21;;;;;;;0.20;0.20;;;18.90;99.90;;;;;;4399089;32;20158;-62
2021/05/11 01:00:46;;;;;;;0.35;0.35;;;18.80;99.90;;;;;;4398478;32;20083;-63
2021/05/11 01:03:12;;;;;;;0.40;0.40;;;18.80;99.90;;;;;;4399504;32;20128;-62
2021/05/11 01:05:37;;;;;;;0.85;0.40;;;18.80;99.90;;;;;;4399380;32;20113;-63
2021/05/11 01:08:03;;;;;;;0.35;0.35;;;18.80;99.90;;;;;;4397528;32;20397;-64
2021/05/11 01:10:29;;;;;;;5.47;1.12;;;18.70;99.90;;;;;;4399766;32;20444;-63
2021/05/11 01:12:54;;;;;;;2.55;1.05;;;18.70;99.90;;;;;;4412238;32;20108;-62
2021/05/11 01:15:20;;;;;;;0.30;0.30;;;18.60;99.90;;;;;;4414053;32;20069;-63
2021/05/11 01:18:00;;;;;;;4.72;0.93;;;18.60;99.90;;;;;;4412919;32;20054;-63
2021/05/11 01:20:31;;;;;;;0.20;0.20;;;18.60;99.90;;;;;;4413304;32;20077;-63
2021/05/11 01:24:02;;;;;;;0.20;0.20;;;18.50;99.90;;;;;;4414745;32;20167;-64
2021/05/11 01:25:44;;;;;;;0.25;0.25;;;18.50;99.90;;;;;;4412740;32;20062;-62
2021/05/11 01:28:18;;;;;;;0.20;0.20;;;18.40;99.90;;;;;;4412953;32;20054;-63
2021/05/11 01:31:12;;;;;;;0.20;0.20;;;18.40;99.90;;;;;;4413102;32;20419;-63
2021/05/11 01:52:29;;;;;;;0.20;0.20;;;18.20;99.90;;;;;;4398033;32;20528;-62
2021/05/11 01:55:11;;;;;;;0.62;0.45;;;18.20;99.90;;;;;;4412017;32;20074;-64
2021/05/11 01:57:51;;;;;;;0.20;0.20;;;18.20;99.90;;;;;;4414642;32;20065;-64
2021/05/11 02:10:54;;;;;;;0.30;0.30;;;18.10;99.90;;;;;;4413880;32;20117;-62
2021/05/11 02:18:00;;;;;;;0.30;0.30;;;18.00;99.90;;;;;;4399040;32;20535;-61
2021/05/11 02:18:17;;;;;;;1.65;0.55;;;18.00;99.90;;;;;;4399454;32;20110;-63
2021/05/11 02:22:53;;;;;;;0.28;0.28;;;18.10;99.90;;;;;;4378603;32;20058;-64
2021/05/11 02:25:08;;;;;;;0.50;0.40;;;18.10;99.90;;;;;;4388825;32;20515;-62
2021/05/11 02:27:35;;;;;;;0.40;0.40;;;18.10;99.90;;;;;;4401176;32;20066;-63
2021/05/11 02:30:02;;;;;;;0.30;0.30;;;18.00;99.90;;;;;;4400974;32;20358;-63
2021/05/11 02:32:27;;;;;;;0.35;0.30;;;18.00;99.90;;;;;;4400001;32;20417;-63
2021/05/11 02:34:53;;;;;;;0.30;0.30;;;18.00;99.90;;;;;;4401301;32;20058;-63
2021/05/11 02:37:18;;;;;;;0.40;0.40;;;18.00;99.90;;;;;;4400524;32;20508;-64
2021/05/11 02:39:44;;;;;;;0.28;0.28;;;17.90;99.90;;;;;;4400557;32;20071;-63
2021/05/11 02:42:10;;;;;;;0.65;0.35;;;17.90;99.90;;;;;;4401119;32;20078;-63
2021/05/11 02:44:41;;;;;;;0.20;0.20;;;18.00;99.90;;;;;;4399941;32;20069;-63
2021/05/11 02:47:06;;;;;;;;;;;17.90;99.90;;;;;;4400377;32;20058;-63
2021/05/11 02:49:32;;;;;;;0.40;0.40;;;17.80;99.90;;;;;;4398921;32;19950;-63
2021/05/11 02:51:58;;;;;;;5.32;0.73;;;17.80;99.90;;;;;;4400290;32;20540;-63
2021/05/11 02:54:23;;;;;;;0.20;0.20;;;17.80;99.90;;;;;;4409356;32;20066;-63
2021/05/11 02:56:49;;;;;;;0.30;0.30;;;17.70;99.90;;;;;;4414905;32;20061;-63
2021/05/11 02:59:14;;;;;;;0.35;0.35;;;17.70;99.90;;;;;;4414952;32;20058;-63
2021/05/11 03:01:40;;;;;;;0.35;0.35;;;17.70;99.90;;;;;;4416147;32;20057;-63
2021/05/11 03:04:05;;;;;;;0.35;0.35;;;17.70;99.90;;;;;;4414850;32;20082;-63
2021/05/11 03:06:31;;;;;;;0.45;0.40;;;17.70;99.90;;;;;;4415049;32;20119;-63
2021/05/11 03:08:57;;;;;;;0.30;0.30;;;17.70;99.90;;;;;;4415841;32;20086;-64
2021/05/11 03:11:22;;;;;;;3.85;0.62;;;17.60;99.90;;;;;;4411651;32;20573;-64
2021/05/11 03:13:48;;;;;;;0.30;0.30;;;17.70;99.90;;;;;;4400807;32;20082;-63
2021/05/11 03:16:14;;;;;;;0.32;0.32;;;17.80;99.90;;;;;;4399997;32;20051;-62
2021/05/11 03:18:43;;;;;;;0.43;0.43;;;17.80;99.90;;;;;;4399666;32;20062;-63
2021/05/11 03:21:09;;;;;;;0.20;0.20;;;17.70;99.90;;;;;;4385658;32;20167;-64
2021/05/11 03:23:34;;;;;;;0.20;0.20;;;17.60;99.90;;;;;;4400351;32;20089;-63
2021/05/11 03:25:59;;;;;;;1.10;0.70;;;17.60;99.90;;;;;;4398434;32;20062;-63
2021/05/11 03:28:25;;;;;;;0.37;0.37;;;17.70;99.90;;;;;;4400189;32;20478;-63
2021/05/11 03:30:50;;;;;;;1.52;0.60;;;17.70;99.90;;;;;;4399622;32;20066;-62
2021/05/11 03:33:16;;;;;;;0.30;0.30;;;17.60;99.90;;;;;;4399582;32;20158;-62
2021/05/11 03:35:41;;;;;;;0.30;0.30;;;17.60;99.90;;;;;;4400463;32;20074;-63
2021/05/11 03:38:08;;;;;;;0.20;0.20;;;17.60;99.90;;;;;;4399156;32;20485;-63
2021/05/11 03:40:34;;;;;;;0.32;0.32;;;17.60;99.90;;;;;;4400001;32;20081;-63
2021/05/11 03:43:04;;;;;;;0.28;0.28;;;17.60;99.90;;;;;;4400609;32;20429;-63
2021/05/11 03:45:36;;;;;;;0.30;0.30;;;17.50;99.90;;;;;;4399244;32;20515;-63
2021/05/11 03:48:01;;;;;;;0.30;0.30;;;17.50;99.90;;;;;;4397809;32;20062;-64
2021/05/11 03:50:27;;;;;;;0.75;0.60;;;17.60;99.90;;;;;;4400414;32;20083;-63
2021/05/11 03:52:52;;;;;;;0.32;0.32;;;17.60;99.90;;;;;;4400448;32;20070;-63
2021/05/11 03:55:18;;;;;;;0.60;0.60;;;17.40;99.90;;;;;;4414152;32;20053;-64
2021/05/11 03:57:43;;;;;;;0.40;0.40;;;17.40;99.90;;;;;;4415044;32;20070;-63
2021/05/11 04:00:10;;;;;;;0.20;0.20;;;17.40;99.90;;;;;;4414053;32;20074;-63
2021/05/11 04:02:37;;;;;;;0.30;0.30;;;17.50;99.90;;;;;;4414307;32;20062;-65
2021/05/11 04:05:07;;;;;;;3.72;1.60;;;17.40;99.90;;;;;;4415573;32;20401;-64
2021/05/11 04:07:33;;;;;;;0.35;0.30;;;17.40;99.90;;;;;;4413113;32;20566;-63
2021/05/11 04:10:01;;;;;;;0.60;0.55;;;17.40;99.90;;;;;;4414905;32;20058;-63
2021/05/11 04:14:16;;;;;;;1.52;0.95;;;17.30;99.90;;;;;;4415035;32;20062;-62
2021/05/11 04:16:29;;;;;;;0.45;0.45;;;17.40;99.90;;;;;;4402646;32;20075;-62
2021/05/11 04:17:58;;;;;;;0.40;0.40;;;17.50;99.90;;;;;;4412701;32;20125;-63
2021/05/11 04:20:23;;;;;;;0.30;0.30;;;17.50;99.90;;;;;;4413905;32;20069;-62
2021/05/11 04:22:49;;;;;;;0.37;0.37;;;17.60;99.90;;;;;;4408713;32;20070;-65
2021/05/11 04:25:15;;;;;;;0.20;0.20;;;17.60;99.90;;;;;;4412309;32;20070;-64
2021/05/11 04:27:40;;;;;;;1.00;0.70;;;17.60;99.90;;;;;;4410890;32;20073;-64
2021/05/11 04:30:07;;;;;;;0.30;0.30;;;17.60;99.90;;;;;;4398566;32;20429;-64
2021/05/11 04:32:32;;;;;;;0.40;0.40;;;17.70;99.90;;;;;;4398135;32;20062;-63
2021/05/11 04:34:58;;;;;;;3.80;0.80;;;17.80;99.90;;;;;;4400177;32;20071;-63
2021/05/11 04:37:24;;;;;;;0.35;0.35;;;17.80;99.90;;;;;;4397763;32;20115;-63
2021/05/11 04:39:50;;;;;;;0.62;0.50;;;17.90;99.90;;;;;;4401181;32;20174;-65
2021/05/11 04:42:16;;;;;;;0.30;0.30;;;17.90;99.90;;;;;;4415520;32;20069;-63
2021/05/11 04:44:41;;;;;;;0.43;0.43;;;17.80;99.90;;;;;;4414095;32;20078;-63
2021/05/11 04:47:18;;;;;;;1.00;0.85;;;17.90;99.90;;;;;;4413925;32;20112;-63
2021/05/11 04:49:43;;;;;;;1.08;0.73;;;17.90;99.90;;;;;;4413228;32;20057;-65
2021/05/11 04:52:09;;;;;;;0.40;0.40;;;17.90;99.90;;;;;;4414635;32;20466;-62
2021/05/11 04:54:35;;;;;;;0.50;0.50;;;17.90;99.90;;;;;;4413450;32;20057;-63
2021/05/11 04:57:00;;;;;;;0.50;0.50;;;18.00;99.90;;;;;;4412987;32;20073;-63
2021/05/11 04:59:25;;;;;;;9.02;0.60;;;18.10;99.90;;;;;;4411634;32;20054;-64
2021/05/11 05:01:53;;;;;;;0.20;0.20;;;18.10;99.90;;;;;;4405504;32;20082;-64
2021/05/11 05:04:19;;;;;;;1.35;0.60;;;18.30;99.90;;;;;;4408989;32;20124;-64
2021/05/11 05:06:44;;;;;;;0.65;0.50;;;18.20;99.90;;;;;;4410401;32;20185;-64
2021/05/11 05:09:10;;;;;;;0.80;0.40;;;18.20;99.90;;;;;;4407424;32;20522;-62
2021/05/11 05:11:40;;;;;;;0.77;0.57;;;18.20;99.90;;;;;;4404437;32;20077;-63
2021/05/11 05:14:06;;;;;;;0.52;0.52;;;18.30;99.90;;;;;;4412942;32;20061;-63
2021/05/11 05:16:32;;;;;;;0.80;0.60;;;18.40;99.90;;;;;;4403720;32;20473;-63
2021/05/11 05:18:58;;;;;;;0.40;0.40;;;18.40;99.90;;;;;;4394748;32;20062;-63
2021/05/11 05:21:23;;;;;;;4.65;1.25;;;18.50;99.90;;;;;;4410930;32;20107;-64
2021/05/11 05:23:59;;;;;;;1.17;0.55;;;18.50;99.90;;;;;;4408639;32;20058;-63
2021/05/11 05:26:27;;;;;;;0.73;0.73;;;18.70;99.90;;;;;;4402075;32;20125;-64
2021/05/11 05:28:52;;;;;;;0.82;0.82;;;18.70;99.90;;;;;;4400662;32;20081;-63
2021/05/11 05:31:18;;;;;;;0.50;0.50;;;18.80;99.90;;;;;;4385415;32;20421;-63
2021/05/11 05:33:43;;;;;;;0.50;0.50;;;18.80;99.90;;;;;;4401156;32;20536;-63
2021/05/11 05:36:09;;;;;;;31.17;1.75;;;18.80;99.90;;;;;;4410356;32;20070;-63
2021/05/11 05:38:39;;;;;;;0.40;0.40;;;18.80;99.90;;;;;;4407049;32;20079;-65
2021/05/11 05:41:08;;;;;;;0.37;0.37;;;19.00;99.90;;;;;;4411210;32;20477;-63
2021/05/11 05:43:34;;;;;;;0.22;0.22;;;19.10;99.90;;;;;;4399921;32;20094;-64
2021/05/11 05:45:59;;;;;;;1.40;1.10;;;19.00;99.90;;;;;;4406537;32;20066;-64
2021/05/11 05:48:25;;;;;;;0.47;0.30;;;19.00;99.90;;;;;;4407185;32;20591;-64
2021/05/11 05:50:55;;;;;;;0.22;0.22;;;19.00;99.90;;;;;;4410778;32;20069;-64
2021/05/11 05:53:24;;;;;;;0.80;0.70;;;19.10;99.90;;;;;;4413055;32;20128;-63
2021/05/11 05:55:50;;;;;;;0.85;0.82;;;19.10;99.90;;;;;;4393624;32;20058;-64
2021/05/11 05:58:16;;;;;;;0.35;0.35;;;19.10;99.90;;;;;;4411267;32;20630;-63
2021/05/11 06:00:42;;;;;;;4.07;1.02;;;19.10;99.90;;;;;;4411098;32;20125;-63
2021/05/11 06:03:19;;;;;;;0.50;0.50;;;19.20;99.90;;;;;;4409006;32;20066;-63
2021/05/11 06:05:44;;;;;;;0.50;0.50;;;19.30;99.90;;;;;;4412932;32;20070;-65
2021/05/11 06:08:10;;;;;;;3.40;1.02;;;19.40;99.90;;;;;;4402940;32;20049;-65
2021/05/11 06:10:36;;;;;;;0.32;0.32;;;19.40;99.90;;;;;;4403660;32;20131;-65
2021/05/11 06:13:09;;;;;;;0.52;0.52;;;19.50;99.90;;;;;;4406175;32;20070;-63
2021/05/11 06:17:16;;;;;;;1.27;1.17;;;19.50;99.90;;;;;;4410792;32;20081;-64
2021/05/11 06:18:21;;;;;;;0.50;0.50;;;19.70;99.90;;;;;;4402083;32;20061;-64
2021/05/11 06:20:46;;;;;;;1.75;0.93;;;19.80;99.90;;;;;;4408449;32;20421;-62
2021/05/11 06:23:12;;;;;;;0.40;0.40;;;19.70;99.90;;;;;;4407333;32;20086;-63
2021/05/11 06:25:42;;;;;;;1.35;0.88;;;19.70;99.90;;;;;;4403661;32;20069;-63
2021/05/11 06:28:08;;;;;;;1.83;0.95;;;19.70;99.90;;;;;;4404057;32;20124;-64
2021/05/11 06:30:33;;;;;;;0.40;0.40;;;19.80;99.90;;;;;;4413022;32;20459;-63
2021/05/11 06:32:59;;;;;;;15.43;0.55;;;19.80;99.90;;;;;;4408484;32;20086;-63
2021/05/11 06:35:26;;;;;;;2.60;0.60;;;19.80;99.90;;;;;;4403800;32;20065;-64
2021/05/11 06:37:56;;;;;;;3.15;1.65;;;19.80;99.90;;;;;;4409444;32;20066;-63
2021/05/11 06:40:22;;;;;;;0.30;0.30;;;19.90;99.90;;;;;;4407122;32;20520;-64
2021/05/11 06:42:48;;;;;;;5.47;0.65;;;19.90;99.90;;;;;;4411204;32;20058;-64
2021/05/11 06:48:06;;;;;;;0.93;0.80;;;19.90;99.90;;;;;;4399730;32;20078;-63
2021/05/11 06:50:42;;;;;;;1.52;0.93;;;20.00;99.90;;;;;;4406437;32;20490;-65
2021/05/11 06:53:15;;;;;;;1.02;0.60;;;20.10;99.90;;;;;;4405573;32;20680;-63
2021/05/11 06:55:43;;;;;;;0.43;0.43;;;20.20;99.90;;;;;;4407731;32;20471;-62
2021/05/11 06:58:10;;;;;;;1.20;0.80;;;20.20;99.90;;;;;;4392315;32;20089;-63
2021/05/11 07:00:40;;;;;;;0.52;0.50;;;20.30;99.90;;;;;;4411236;32;20491;-65
2021/05/11 07:03:05;;;;;;;2.45;1.25;;;20.40;99.90;;;;;;4402099;32;20054;-63
2021/05/11 07:05:34;;;;;;;0.43;0.40;;;20.30;99.90;;;;;;4397846;32;20214;-64
2021/05/11 07:08:08;;;;;;;0.40;0.40;;;20.30;99.90;;;;;;4402867;32;20110;-64
2021/05/11 07:10:35;;;;;;;3.35;1.37;;;20.30;99.90;;;;;;4399024;32;20070;-64
2021/05/11 07:13:10;;;;;;;0.50;0.50;;;20.40;99.90;;;;;;4404015;32;20066;-63
2021/05/11 07:15:37;;;;;;;0.40;0.40;;;20.40;99.90;;;;;;4406081;32;20381;-65
2021/05/11 07:18:13;;;;;;;1.02;0.70;;;20.50;99.90;;;;;;4412595;32;20054;-63
2021/05/11 07:20:40;;;;;;;0.60;0.60;;;20.50;99.90;;;;;;4402511;32;20070;-63
2021/05/11 07:23:06;;;;;;;0.90;0.60;;;20.50;99.90;;;;;;4405958;32;20374;-63
2021/05/11 07:25:39;;;;;;;0.30;0.30;;;20.60;99.90;;;;;;4386465;32;20066;-62
2021/05/11 07:28:22;;;;;;;4.00;1.75;;;20.70;99.90;;;;;;4392811;32;20517;-64
2021/05/11 07:30:48;;;;;;;0.65;0.35;;;20.90;99.90;;;;;;4399682;32;20456;-64
2021/05/11 07:33:14;;;;;;;0.57;0.57;;;21.10;99.90;;;;;;4404098;32;20074;-64
2021/05/11 07:35:40;;;;;;;0.52;0.52;;;21.30;99.90;;;;;;4439322;26;20136;-71
2021/05/11 07:38:07;;;;;;;0.40;0.40;;;21.40;99.90;;;;;;4437636;32;20092;-73
2021/05/11 07:40:32;;;;;;;1.45;0.90;;;21.40;99.90;;;;;;4421853;32;20073;-72
2021/05/11 07:42:58;;;;;;;0.88;0.88;;;21.40;99.90;;;;;;4423670;32;20070;-72
2021/05/11 07:48:17;;;;;;;0.40;0.40;;;21.30;99.90;;;;;;4408624;32;20528;-72
2021/05/11 07:51:04;;;;;;;0.45;0.45;;;21.40;99.90;;;;;;4421977;32;20097;-72
2021/05/11 08:01:53;;;;;;;0.62;0.55;;;21.60;99.90;;;;;;4409390;32;20528;-72
2021/05/11 08:02:14;;;;;;;1.12;0.82;;;21.80;99.90;;;;;;4407453;32;20404;-72
2021/05/11 08:14:42;;;;;;;0.40;0.40;;;22.50;99.90;;;;;;4405019;32;20098;-73
2021/05/11 08:15:33;;;;;;;0.40;0.40;;;22.70;99.90;;;;;;4408451;32;20086;-73
2021/05/11 08:19:06;;;;;;;0.30;0.30;;;22.90;99.90;;;;;;4415588;32;20343;-73
2021/05/11 08:22:55;;;;;;;0.22;0.22;;;23.10;99.90;;;;;;4409950;32;20500;-72
2021/05/11 08:27:29;;;;;;;2.17;0.70;;;23.10;99.90;;;;;;4409840;32;20314;-71
2021/05/11 08:28:15;;;;;;;0.60;0.60;;;23.10;99.90;;;;;;4405502;32;20515;-70
2021/05/11 08:29:00;;;;;;;0.50;0.50;;;23.10;99.90;;;;;;4408415;32;20176;-70
2021/05/11 08:31:25;;;;;;;0.20;0.20;;;23.20;99.90;;;;;;4420168;32;20069;-71
2021/05/11 08:33:51;;;;;;;0.82;0.65;;;23.10;99.70;;;;;;4416325;32;20102;-72
2021/05/11 08:36:16;;;;;;;1.42;0.93;;;23.10;99.60;;;;;;4422626;32;20544;-72
2021/05/11 08:38:42;;;;;;;0.32;0.32;;;23.10;99.60;;;;;;4422556;32;20105;-72
2021/05/11 08:41:07;;;;;;;0.85;0.60;;;23.10;99.00;;;;;;4420509;32;20234;-72
2021/05/11 08:43:37;;;;;;;0.30;0.30;;;23.30;99.30;;;;;;4420350;32;20085;-73
2021/05/11 08:46:05;;;;;;;0.37;0.37;;;23.40;98.00;;;;;;4423299;32;20065;-71
2021/05/11 08:48:31;;;;;;;1.98;0.47;;;23.50;97.60;;;;;;4413637;32;20070;-71
2021/05/11 08:51:32;;;;;;;0.70;0.70;;;23.60;97.60;;;;;;4422781;32;20109;-71
2021/05/11 08:54:03;;;;;;;2.45;1.58;;;23.70;97.40;;;;;;4410097;32;20069;-72
2021/05/11 09:07:42;;;;;;;0.40;0.40;;;24.30;96.00;;;;;;4422928;32;20073;-71
2021/05/11 09:14:21;;;;;;;0.62;0.62;;;24.50;96.00;;;;;;4418419;32;20049;-71
2021/05/11 09:23:31;;;;;;;0.30;0.30;;;24.60;96.00;;;;;;4406962;32;20073;-71
2021/05/11 09:23:39;;;;;;;1.65;0.75;;;24.70;95.40;;;;;;4402433;32;20066;-71
2021/05/11 09:25:23;;;;;;;0.40;0.40;;;24.90;95.20;;;;;;4408278;32;20169;-72
2021/05/11 09:27:17;;;;;;;0.30;0.30;;;25.00;95.20;;;;;;4406340;32;20562;-73
2021/05/11 09:29:57;;;;;;;0.70;0.60;;;25.20;96.10;;;;;;4417772;32;20149;-72
2021/05/11 09:55:32;;;;;;;0.70;0.70;;;26.10;94.30;;;;;;4421283;32;20057;-72
2021/05/11 09:58:11;;;;;;;0.40;0.40;;;26.10;93.30;;;;;;4410230;32;20070;-73
2021/05/11 10:01:28;;;;;;;1.15;0.82;;;25.90;93.00;;;;;;4408005;32;20477;-73
2021/05/11 10:12:00;;;;;;;0.20;0.20;;;26.50;92.80;;;;;;4408118;32;20074;-71
2021/05/11 10:32:00;;;;;;;0.17;0.17;;;27.80;90.50;;;;;;4412592;32;20606;-73
2021/05/11 10:37:26;;;;;;;2.85;1.10;;;27.70;90.00;;;;;;4408734;32;20324;-73
2021/05/11 10:40:13;;;;;;;0.57;0.57;;;27.70;90.50;;;;;;4411787;32;20109;-73
2021/05/11 10:48:33;;;;;;;3.97;0.60;;;28.60;86.40;;;;;;4410579;32;20093;-74
2021/05/11 10:51:01;;;;;;;0.30;0.30;;;28.30;87.50;;;;;;4409294;32;20081;-74
2021/05/11 10:53:53;;;;;;;4.70;1.40;;;28.60;86.90;;;;;;4424918;32;20082;-74
2021/05/11 10:59:50;;;;;;;0.57;0.40;;;29.30;84.70;;;;;;4419343;32;20081;-73
2021/05/11 11:02:01;;;;;;;1.55;1.12;;;29.10;84.60;;;;;;4415297;32;20077;-74
2021/05/11 11:04:32;;;;;;;0.57;0.57;;;29.50;85.50;;;;;;4418748;32;20054;-74
2021/05/11 11:07:01;;;;;;;0.70;0.68;;;29.20;82.70;;;;;;4423925;32;20090;-74
2021/05/11 11:09:31;;;;;;;0.40;0.40;;;29.10;83.30;;;;;;4419813;32;20070;-74
2021/05/11 11:11:58;;;;;;;1.30;0.50;;;29.30;81.60;;;;;;4427028;32;20065;-74
2021/05/11 11:14:25;;;;;;;0.52;0.52;;;29.10;82.70;;;;;;4417318;32;20165;-73
2021/05/11 11:17:08;;;;;;;1.55;0.75;;;29.40;84.50;;;;;;4417149;32;20085;-74
2021/05/11 11:19:35;;;;;;;0.50;0.50;;;29.40;81.50;;;;;;4422688;32;20074;-74
2021/05/11 11:23:42;;;;;;;9.75;0.90;;;29.60;81.80;;;;;;4419622;32;20133;-74
2021/05/11 11:24:57;;;;;;;0.60;0.57;;;29.80;81.00;;;;;;4412271;32;20086;-73
2021/05/11 11:27:24;;;;;;;0.30;0.30;;;30.30;78.70;;;;;;4422069;32;20590;-73
2021/05/11 11:29:58;;;;;;;0.45;0.40;;;30.60;79.40;;;;;;4415007;32;20132;-73
2021/05/11 11:32:23;;;;;;;0.10;0.10;;;31.10;75.90;;;;;;4422741;32;20074;-73
2021/05/11 11:34:54;;;;;;;0.50;0.50;;;31.20;74.80;;;;;;4421009;32;20110;-72
2021/05/11 11:37:20;;;;;;;0.52;0.40;;;31.50;74.90;;;;;;4427568;32;20069;-73
2021/05/11 11:39:47;;;;;;;0.30;0.30;;;31.60;74.70;;;;;;4420536;32;20181;-73
2021/05/11 11:42:18;;;;;;;0.62;0.30;;;31.30;76.40;;;;;;4423197;32;20090;-72
2021/05/11 11:44:44;;;;;;;0.28;0.25;;;31.40;75.40;;;;;;4425971;32;20562;-71
2021/05/11 11:47:12;;;;;;;0.22;0.22;;;31.60;73.00;;;;;;4419715;32;20137;-72
2021/05/11 11:49:43;;;;;;;1.33;0.90;;;31.90;72.10;;;;;;4420026;32;20124;-72
2021/05/11 11:52:15;;;;;;;1.00;0.60;;;31.90;71.40;;;;;;4419710;32;20185;-72
2021/05/11 11:54:48;;;;;;;7.72;0.77;;;31.80;71.50;;;;;;4423011;32;20062;-72
2021/05/11 11:58:06;;;;;;;0.70;0.40;;;32.00;73.80;;;;;;4416033;32;20139;-72
2021/05/11 12:00:23;;;;;;;0.50;0.50;;;32.20;70.90;;;;;;4395835;32;20083;-72
2021/05/11 12:03:10;;;;;;;0.20;0.20;;;31.30;73.20;;;;;;4407766;32;20771;-71
2021/05/11 12:05:39;;;;;;;0.40;0.40;;;30.70;72.40;;;;;;4413940;32;20085;-71
2021/05/11 12:10:43;;;;;;;1.35;0.82;;;30.30;73.60;;;;;;4412946;32;20077;-72
2021/05/11 12:13:10;;;;;;;0.20;0.20;;;30.30;75.90;;;;;;4419161;32;20467;-72
2021/05/11 12:15:37;;;;;;;5.45;1.10;;;31.10;72.60;;;;;;4427083;32;20350;-72
2021/05/11 12:18:09;;;;;;;0.20;0.20;;;31.30;71.40;;;;;;4423875;32;20077;-72
2021/05/11 12:20:35;;;;;;;1.15;0.22;;;31.90;69.70;;;;;;4421517;32;20073;-72
2021/05/11 12:23:03;;;;;;;1.52;1.02;;;32.10;69.30;;;;;;4417594;32;20077;-72
2021/05/11 12:25:28;;;;;;;0.30;0.30;;;32.10;68.00;;;;;;4425516;32;20074;-72
2021/05/11 12:27:54;;;;;;;0.13;0.13;;;32.30;67.20;;;;;;4420807;32;20066;-72
2021/05/11 12:30:19;;;;;;;1.85;0.52;;;32.60;68.00;;;;;;4417321;32;20086;-72
2021/05/11 12:32:45;;;;;;;0.75;0.47;;;32.90;65.30;;;;;;4413455;32;20186;-72
2021/05/11 12:35:13;;;;;;;0.20;0.20;;;32.60;67.30;;;;;;4413954;32;20194;-72
2021/05/11 12:37:58;;;;;;;1.48;0.37;;;32.50;67.10;;;;;;4415784;32;20739;-72
2021/05/11 12:40:30;;;;;;;0.10;0.10;;;32.30;68.70;;;;;;4424253;32;20492;-72
2021/05/11 12:42:58;;;;;;;0.45;0.45;;;32.30;66.40;;;;;;4419388;32;20131;-72
2021/05/11 12:45:25;;;;;;;1.27;0.65;;;32.10;67.20;;;;;;4412985;32;20070;-72
2021/05/11 12:47:53;;;;;;;2.37;0.68;;;32.50;65.60;;;;;;4415312;32;20125;-72
2021/05/11 12:50:27;;;;;;;0.50;0.47;;;32.90;68.10;;;;;;4416227;32;20078;-72
2021/05/11 12:52:54;;;;;;;0.13;0.13;;;33.10;66.10;;;;;;4414160;32;20493;-72
2021/05/11 12:56:00;;;;;;;0.95;0.62;;;33.60;65.20;;;;;;4420360;32;20078;-72
2021/05/11 12:58:44;;;;;;;0.20;0.20;;;34.10;62.40;;;;;;4409912;32;20459;-72
2021/05/11 13:01:35;;;;;;;0.20;0.20;;;33.70;66.50;;;;;;4416915;32;20523;-72
2021/05/11 13:04:24;;;;;;;0.32;0.32;;;33.60;64.50;;;;;;4412861;32;20077;-72
2021/05/11 13:09:32;;;;;;;0.30;0.30;;;33.90;61.70;;;;;;4427313;32;20097;-72
2021/05/11 13:16:25;;;;;;;0.60;0.57;;;33.70;63.10;;;;;;4401232;32;20097;-73
2021/05/11 13:19:48;;;;;;;0.40;0.40;;;33.90;61.70;;;;;;4410363;32;20098;-73
2021/05/11 13:21:02;;;;;;;0.57;0.32;;;33.80;62.80;;;;;;4410685;32;20066;-73
2021/05/11 13:25:40;;;;;;;1.35;0.85;;;33.90;62.40;;;;;;4428031;32;20113;-73
2021/05/11 13:28:11;;;;;;;0.37;0.35;;;34.30;62.50;;;;;;4419421;32;20121;-73
2021/05/11 13:30:43;;;;;;;1.98;0.85;;;34.50;61.80;;;;;;4412972;32;20069;-73
2021/05/11 13:33:18;;;;;;;0.50;0.50;;;34.60;62.80;;;;;;4418637;32;20061;-73
2021/05/11 13:35:43;;;;;;;2.95;0.50;;;34.50;60.70;;;;;;4412846;32;20472;-73
2021/05/11 13:38:09;;;;;;;0.30;0.30;;;34.60;58.10;;;;;;4415886;32;20055;-73
2021/05/11 13:40:34;;;;;;;0.20;0.20;;;33.80;59.60;;;;;;4415685;32;20061;-73
2021/05/11 13:43:00;;;;;;;0.22;0.22;;;34.40;58.40;;;;;;4424079;32;20111;-73
2021/05/11 13:45:26;;;;;;;0.40;0.40;;;34.20;59.60;;;;;;4427678;32;20073;-73
2021/05/11 13:48:31;;;;;;;0.43;0.43;;;34.70;58.70;;;;;;4414576;32;20679;-73
2021/05/11 13:53:07;;;;;;;0.35;0.35;;;33.80;59.20;;;;;;4412356;32;20164;-72
2021/05/11 13:55:40;;;;;;;0.30;0.30;;;33.70;60.30;;;;;;4424505;32;20488;-73
2021/05/11 14:02:05;;;;;;;1.75;0.90;;;33.70;60.70;;;;;;4413383;32;20058;-72
2021/05/11 14:03:37;;;;;;;0.55;0.55;;;33.80;59.80;;;;;;4411131;32;20065;-73
2021/05/11 14:06:02;;;;;;;4.90;1.10;;;32.60;62.10;;;;;;4430023;32;20089;-73
2021/05/11 14:08:28;;;;;;;0.35;0.35;;;32.50;64.30;;;;;;4412308;32;20144;-72
2021/05/11 14:10:53;;;;;;;0.62;0.62;;;32.80;62.10;;;;;;4414696;32;20066;-72
2021/05/11 14:13:19;;;;;;;0.25;0.20;;;33.30;61.00;;;;;;4424118;32;20073;-72
2021/05/11 14:15:44;;;;;;;0.35;0.28;;;34.10;60.30;;;;;;4430419;32;20100;-72
2021/05/11 14:18:10;;;;;;;0.35;0.28;;;34.90;58.00;;;;;;4429007;32;20069;-73
2021/05/11 14:20:35;;;;;;;1.85;0.93;;;35.40;59.20;;;;;;4421510;32;20066;-73
2021/05/11 14:23:01;;;;;;;0.45;0.45;;;35.50;57.60;;;;;;4422750;32;20078;-73
2021/05/11 14:25:26;;;;;;;5.40;0.93;;;35.70;57.30;;;;;;4415139;32;20511;-73
2021/05/11 14:27:52;;;;;;;2.05;1.02;;;35.90;57.30;;;;;;4420377;32;20554;-73
2021/05/11 14:30:18;;;;;;;0.43;0.43;;;35.80;56.60;;;;;;4428544;32;20077;-73
2021/05/11 14:32:44;;;;;;;4.32;0.85;;;35.30;58.10;;;;;;4411431;32;20201;-73
2021/05/11 14:35:10;;;;;;;0.98;0.75;;;34.90;57.70;;;;;;4419437;32;20074;-73
2021/05/11 14:37:35;;;;;;;0.30;0.30;;;34.70;58.70;;;;;;4428063;32;20082;-73
2021/05/11 14:42:43;;;;;;;0.10;0.10;;;34.50;58.90;;;;;;4428780;32;20112;-73
2021/05/11 14:45:10;;;;;;;0.30;0.30;;;34.50;59.70;;;;;;4429176;32;20164;-73
2021/05/11 14:47:36;;;;;;;0.30;0.30;;;35.00;58.80;;;;;;4418821;32;20073;-73
2021/05/11 14:50:04;;;;;;;3.40;0.82;;;36.30;56.40;;;;;;4415520;32;20181;-73
2021/05/11 14:52:29;;;;;;;0.45;0.28;;;36.80;55.00;;;;;;4415323;32;20058;-73
2021/05/11 14:54:55;;;;;;;0.65;0.50;;;37.10;54.70;;;;;;4414248;32;20141;-73
2021/05/11 14:57:20;;;;;;;3.20;0.98;;;36.90;55.30;;;;;;4414605;32;20053;-73
2021/05/11 14:59:46;;;;;;;0.40;0.40;;;37.00;54.40;;;;;;4414020;32;20097;-73
2021/05/11 15:02:13;;;;;;;0.45;0.45;;;36.30;54.30;;;;;;4415315;32;20062;-73
2021/05/11 15:04:39;;;;;;;0.30;0.30;;;35.20;55.90;;;;;;4415893;32;20464;-73
2021/05/11 15:07:04;;;;;;;13.48;0.37;;;34.60;56.70;;;;;;4415007;32;20556;-73
2021/05/11 15:11:58;;;;;;;0.52;0.52;;;34.00;57.90;;;;;;4426648;32;20156;-73
2021/05/11 15:14:24;;;;;;;8.98;0.75;;;34.30;57.80;;;;;;4430322;32;20526;-73
2021/05/11 15:16:57;;;;;;;0.60;0.30;;;34.10;57.60;;;;;;4430241;32;20402;-73
2021/05/11 15:19:23;;;;;;;10.27;0.65;;;34.40;58.00;;;;;;4430722;32;20057;-74
2021/05/11 15:21:49;;;;;;;0.37;0.37;;;34.60;57.30;;;;;;4431607;32;20497;-72
2021/05/11 15:24:15;;;;;;;0.30;0.30;;;35.00;56.70;;;;;;4430494;32;20061;-73
2021/05/11 15:26:40;;;;;;;2.65;0.52;;;35.30;56.40;;;;;;4430372;32;20089;-73
2021/05/11 15:29:06;;;;;;;0.35;0.32;;;34.70;59.40;;;;;;4430696;32;20061;-73
2021/05/11 15:31:32;;;;;;;0.40;0.40;;;33.70;61.90;;;;;;4430833;32;20155;-73